首页
METAR-TAF:

METAR-TAF

机场 :

Greer, 南卡罗来纳州, 美国

纬度: 34-53-02N, 经度: 082-13-15W, 海拔: 296米

当前天气观测

该预报发布于28分钟前的09:53 UTC
静风
温度 10°C
湿度 76%
气压 1017 hPa
能見度: 16.1公里
天空无云

METAR: KGSP 190953Z 00000KT 10SM CLR 10/06 A3004 RMK AO2 SLP168 T01000061

时间: 06:21 (10:21 UTC)

预报

该预报发布于4小时和40分钟前的05:41 UTC
预报有效从19日的 06点(UTC)到 20日的 06点(UTC)
风速节,风向
能見度: 10公里
少量云层高于25000英尺
几率 30%
从 19日的 15点(UTC)到 19日的 17点(UTC)
能見度: 6.4公里
阴天层高于2500英尺
小雨
从 19日的 1700点(UTC)
风速8节,风向东北
能見度: 10公里
散云层高于2000英尺
阴天层高于4500英尺
小雨
从 19日的 2000点(UTC)
风速11节,风向东北,有时为19节阵风
能見度: 4.8公里
阴天层高于900英尺
大雨
从 20日的 0100点(UTC)
风速14节,风向北转东北,有时为23节阵风
能見度: 3.2公里
多云层高于500英尺
阴天层高于800英尺
雨, 轻雾

TAF: KGSP 190541Z 1906/2006 00000KT P6SM FEW250 PROB30 1915/1917 4SM -RA OVC025 FM191700 04008KT P6SM -RA SCT020 OVC045 FM192000 04011G19KT 3SM +RA OVC009 FM200100 02014G23KT 2SM RA BR BKN005 OVC008

超过4000个机场的气象观测和天气预报(METAR&TAF报告)。

可查询的气象台以黄色和红色小点在地图上表示。

将鼠标移到小点上方,可查看气象台名称。

然后点击查看天气观测和预报。

如需切换地图:点击带黑十字的绿色按钮放大地图;点击带横线的绿色按钮缩小地图;或者点击绿色箭头查看邻近地区的地图。


METAR-TAF: